createdAt,value
2023-01-19T00:00:01.097Z,158261.25
2023-01-19T00:03:05.592Z,158257.34
2023-01-19T00:06:10.109Z,158256.03
2023-01-19T00:09:13.965Z,158259.94
2023-01-19T00:12:18.029Z,158263.81
2023-01-19T00:15:21.940Z,158256.03
2023-01-19T00:18:26.010Z,158250.81
2023-01-19T00:21:30.223Z,158253.44
2023-01-19T00:24:34.556Z,158243.03
2023-01-19T00:27:38.697Z,158245.66
2023-01-19T00:30:43.337Z,158252.13
2023-01-19T00:33:49.148Z,158233.91
2023-01-19T00:36:53.481Z,158219.66
2023-01-19T00:39:57.202Z,158275.56
2023-01-19T00:43:01.414Z,158270.41
2023-01-19T00:46:05.923Z,158248.25
2023-01-19T00:49:10.005Z,158244.34
2023-01-19T00:52:14.310Z,158243.03
2023-01-19T00:55:18.444Z,158224.88
2023-01-19T00:58:22.812Z,158236.56
2023-01-19T01:01:45.770Z,158223.56
2023-01-19T01:04:54.752Z,158220.91
2023-01-19T01:07:58.723Z,158218.34
2023-01-19T01:11:03.156Z,158209.22
2023-01-19T01:14:08.656Z,158213.13
2023-01-19T01:17:14.188Z,158204.06
2023-01-19T01:20:21.316Z,158217.03
2023-01-19T01:23:25.091Z,158219.66
2023-01-19T01:26:29.000Z,158209.22
2023-01-19T01:29:35.265Z,158209.22
2023-01-19T01:32:39.651Z,158192.34
2023-01-19T01:35:43.743Z,158207.97
2023-01-19T01:38:47.679Z,158191.06
2023-01-19T01:41:52.011Z,158178.06
2023-01-19T01:45:02.341Z,158166.38
2023-01-19T01:48:15.652Z,158171.53
2023-01-19T01:51:30.316Z,158175.50
2023-01-19T01:54:37.457Z,158174.19
2023-01-19T01:57:46.143Z,158170.28
2023-01-19T02:01:08.935Z,158157.28
2023-01-19T02:04:13.170Z,158135.19
2023-01-19T02:07:45.773Z,158133.91
2023-01-19T02:11:09.566Z,158122.13
2023-01-19T02:14:13.568Z,158136.50
2023-01-19T02:17:17.497Z,158131.28
2023-01-19T02:20:26.001Z,158136.50
2023-01-19T02:23:37.930Z,158128.66
2023-01-19T02:26:44.981Z,158140.38
2023-01-19T02:29:48.825Z,158131.28
2023-01-19T02:32:53.921Z,158127.34
2023-01-19T02:35:58.081Z,158116.97
2023-01-19T02:39:04.422Z,158113.09
2023-01-19T02:42:13.913Z,158100.06
2023-01-19T02:45:21.737Z,158101.41
2023-01-19T02:48:25.975Z,158107.88
2023-01-19T02:51:30.164Z,158115.66
2023-01-19T02:54:33.851Z,158115.66
2023-01-19T02:57:59.656Z,158132.59
2023-01-19T03:01:17.975Z,158131.28
2023-01-19T03:04:33.976Z,158144.28
2023-01-19T03:07:37.930Z,158105.28
2023-01-19T03:11:04.703Z,158120.88
2023-01-19T03:14:16.342Z,158093.56
2023-01-19T03:17:22.265Z,158107.88
2023-01-19T03:20:28.799Z,158075.41
2023-01-19T03:23:35.330Z,158059.84
2023-01-19T03:26:44.177Z,158035.16
2023-01-19T03:29:52.912Z,158037.75
2023-01-19T03:33:03.243Z,158050.72
2023-01-19T03:36:17.115Z,158020.84
2023-01-19T03:39:22.955Z,158020.84
2023-01-19T03:42:28.670Z,158068.88
2023-01-19T03:45:34.221Z,158070.19
2023-01-19T03:48:38.542Z,158053.31
2023-01-19T03:51:42.688Z,158072.78
2023-01-19T03:54:49.723Z,158085.78
2023-01-19T03:57:53.938Z,158090.97
2023-01-19T04:00:57.922Z,158058.53
2023-01-19T04:04:01.956Z,158076.72
2023-01-19T04:07:06.383Z,158044.22
2023-01-19T04:10:12.724Z,158080.63
2023-01-19T04:13:16.836Z,158052.03
2023-01-19T04:16:21.233Z,158035.16
2023-01-19T04:19:25.456Z,158028.63
2023-01-19T04:22:29.823Z,157993.53
2023-01-19T04:25:33.867Z,157997.44
2023-01-19T04:28:38.375Z,157975.34
2023-01-19T04:31:43.162Z,158027.31
2023-01-19T04:34:47.242Z,158001.34
2023-01-19T04:37:51.224Z,157959.78
2023-01-19T04:40:55.638Z,157931.19
2023-01-19T04:43:59.728Z,157931.19
2023-01-19T04:47:03.886Z,157907.81
2023-01-19T04:50:09.241Z,157911.72
2023-01-19T04:53:14.488Z,157914.28
2023-01-19T04:56:18.633Z,157912.97
2023-01-19T04:59:22.847Z,157906.50
2023-01-19T05:02:26.975Z,157924.66
2023-01-19T05:05:32.905Z,157949.38
2023-01-19T05:08:36.883Z,157944.22
2023-01-19T05:11:41.643Z,157920.75
2023-01-19T05:14:46.008Z,157949.38
2023-01-19T05:17:50.306Z,157910.41
2023-01-19T05:20:54.444Z,157939.00
2023-01-19T05:23:59.223Z,157942.91
2023-01-19T05:27:03.823Z,157940.31
2023-01-19T05:30:08.585Z,157931.19
2023-01-19T05:33:12.620Z,157933.81
2023-01-19T05:36:16.379Z,157920.75
2023-01-19T05:39:20.394Z,157958.47
2023-01-19T05:42:24.873Z,157966.25
2023-01-19T05:45:29.003Z,157952.00
2023-01-19T05:48:33.250Z,157961.09
2023-01-19T05:51:38.899Z,157944.22
2023-01-19T05:54:43.236Z,157929.84
2023-01-19T05:57:47.644Z,157911.72
2023-01-19T06:00:51.604Z,157906.50
2023-01-19T06:03:55.683Z,157896.09
2023-01-19T06:06:59.799Z,157922.06
2023-01-19T06:10:04.123Z,157925.97
2023-01-19T06:13:09.695Z,157923.38
2023-01-19T06:16:14.675Z,157915.59
2023-01-19T06:19:18.805Z,157898.72
2023-01-19T06:22:23.089Z,157902.63
2023-01-19T06:25:27.404Z,157900.00
2023-01-19T06:28:31.855Z,157931.19
2023-01-19T06:31:36.289Z,157937.69
2023-01-19T06:34:43.624Z,157936.44
2023-01-19T06:37:47.359Z,157918.19
2023-01-19T06:40:58.346Z,157957.19
2023-01-19T06:44:03.079Z,157967.56
2023-01-19T06:47:15.835Z,157970.13
2023-01-19T06:50:20.099Z,157919.50
2023-01-19T06:53:24.111Z,157939.00
2023-01-19T06:56:28.163Z,157929.84
2023-01-19T06:59:32.582Z,157962.38
2023-01-19T07:02:37.087Z,157959.78
2023-01-19T07:05:41.104Z,157932.50
2023-01-19T07:08:44.992Z,157925.97
2023-01-19T07:11:49.148Z,157936.44
2023-01-19T07:14:53.428Z,157945.47
2023-01-19T07:17:59.083Z,157961.09
2023-01-19T07:21:04.523Z,157988.34
2023-01-19T07:24:08.572Z,157996.13
2023-01-19T07:27:12.924Z,157998.72
2023-01-19T07:30:17.176Z,158033.84
2023-01-19T07:33:24.815Z,158055.94
2023-01-19T07:36:29.081Z,158045.53
2023-01-19T07:39:33.517Z,158053.31
2023-01-19T07:42:38.011Z,158042.94
2023-01-19T07:45:42.020Z,158028.63
2023-01-19T07:48:47.364Z,158029.94
2023-01-19T07:51:51.528Z,158062.41
2023-01-19T07:54:55.623Z,158076.72
2023-01-19T07:57:59.452Z,158066.31
2023-01-19T08:01:11.916Z,158084.50
2023-01-19T08:04:16.319Z,158101.41
2023-01-19T08:07:19.951Z,158076.72
2023-01-19T08:10:26.696Z,158118.25
2023-01-19T08:13:30.911Z,158131.28
2023-01-19T08:16:36.159Z,158132.59
2023-01-19T08:19:41.708Z,158135.19
2023-01-19T08:22:47.500Z,158137.81
2023-01-19T08:25:51.364Z,158161.19
2023-01-19T08:28:57.727Z,158172.84
2023-01-19T08:32:03.042Z,158157.28
2023-01-19T08:35:07.769Z,158193.66
2023-01-19T08:38:11.855Z,158187.19
2023-01-19T08:41:18.773Z,158214.44
2023-01-19T08:44:22.745Z,158206.66
2023-01-19T08:47:26.928Z,158227.44
2023-01-19T08:50:32.876Z,158302.88
2023-01-19T08:53:36.863Z,158410.75
2023-01-19T08:56:41.395Z,158477.06
2023-01-19T08:59:47.397Z,158536.97
2023-01-19T09:02:51.561Z,158565.56
2023-01-19T09:05:55.515Z,158572.06
2023-01-19T09:08:59.752Z,158568.16
2023-01-19T09:12:04.355Z,158575.97
2023-01-19T09:15:10.884Z,158621.50
2023-01-19T09:18:18.099Z,158637.16
2023-01-19T09:21:22.363Z,158696.94
2023-01-19T09:24:26.682Z,158729.44
2023-01-19T09:27:30.832Z,158728.13
2023-01-19T09:30:37.461Z,158767.22
2023-01-19T09:33:41.350Z,158768.53
2023-01-19T09:36:47.221Z,158760.72
2023-01-19T09:39:51.630Z,158755.50
2023-01-19T09:42:59.514Z,158791.94
2023-01-19T09:46:16.153Z,158784.13
2023-01-19T09:49:31.500Z,158812.78
2023-01-19T09:52:39.555Z,158811.44
2023-01-19T09:55:43.515Z,158807.53
2023-01-19T09:58:49.663Z,158811.44
2023-01-19T10:02:41.865Z,158790.63
2023-01-19T10:05:50.924Z,158807.53
2023-01-19T10:09:11.814Z,158741.16
2023-01-19T10:12:43.809Z,158736.00
2023-01-19T10:16:09.413Z,158777.59
2023-01-19T10:19:46.477Z,158814.09
2023-01-19T10:22:51.055Z,158828.38
2023-01-19T10:25:57.321Z,158836.19
2023-01-19T10:29:13.628Z,158853.13
2023-01-19T10:32:22.488Z,158880.50
2023-01-19T10:35:26.647Z,158897.38
2023-01-19T10:38:34.075Z,158933.88
2023-01-19T10:41:51.494Z,158909.13
2023-01-19T10:44:55.869Z,158941.69
2023-01-19T10:48:07.199Z,158966.38
2023-01-19T10:51:11.745Z,158974.19
2023-01-19T10:54:15.962Z,158982.00
2023-01-19T10:57:32.997Z,159005.44
2023-01-19T11:00:41.486Z,158967.66
2023-01-19T11:03:46.093Z,158968.97
2023-01-19T11:06:49.976Z,159036.72
2023-01-19T11:10:15.949Z,159026.28
2023-01-19T11:13:19.827Z,159039.31
2023-01-19T11:16:29.062Z,159047.13
2023-01-19T11:19:33.871Z,159074.50
2023-01-19T11:22:37.886Z,159061.47
2023-01-19T11:25:47.368Z,159073.19
2023-01-19T11:28:54.671Z,159100.47
2023-01-19T11:32:11.385Z,159105.72
2023-01-19T11:35:39.981Z,159103.13
2023-01-19T11:38:47.037Z,159103.13
2023-01-19T11:42:02.964Z,159116.09
2023-01-19T11:45:15.800Z,159155.22
2023-01-19T11:48:43.059Z,159140.88
2023-01-19T11:51:59.766Z,159164.34
2023-01-19T11:55:34.109Z,159140.88
2023-01-19T11:58:44.382Z,159159.13
2023-01-19T12:01:54.791Z,159151.31
2023-01-19T12:05:04.799Z,159174.75
2023-01-19T12:08:16.543Z,159166.94
2023-01-19T12:11:26.275Z,159174.75
2023-01-19T12:14:42.269Z,159169.56
2023-01-19T12:17:52.213Z,159183.88
2023-01-19T12:20:56.551Z,159203.38
2023-01-19T12:24:03.573Z,159239.91
2023-01-19T12:27:38.365Z,159217.72
2023-01-19T12:30:50.238Z,159216.41
2023-01-19T12:33:54.586Z,159249.00
2023-01-19T12:37:03.751Z,159251.63
2023-01-19T12:40:19.724Z,159243.81
2023-01-19T12:43:24.614Z,159230.78
2023-01-19T12:46:31.886Z,159204.69
2023-01-19T12:49:38.878Z,159178.66
2023-01-19T12:52:51.563Z,159190.44
2023-01-19T12:56:00.994Z,159208.59
2023-01-19T12:59:06.472Z,159259.44
2023-01-19T13:02:46.495Z,159310.22
2023-01-19T13:05:56.421Z,159337.63
2023-01-19T13:09:01.271Z,159351.94
2023-01-19T13:12:14.547Z,159364.94
2023-01-19T13:15:35.307Z,159371.50
2023-01-19T13:18:42.066Z,159341.53
2023-01-19T13:21:48.212Z,159380.56
2023-01-19T13:25:07.183Z,159411.91
2023-01-19T13:28:16.354Z,159417.13
2023-01-19T13:31:21.956Z,159423.63
2023-01-19T13:34:28.194Z,159409.31
2023-01-19T13:37:44.356Z,159389.72
2023-01-19T13:40:49.258Z,159402.75
2023-01-19T13:44:09.066Z,159353.25
2023-01-19T13:47:19.486Z,159328.50
2023-01-19T13:50:31.673Z,159342.84
2023-01-19T13:53:36.591Z,159319.34
2023-01-19T13:56:42.843Z,159325.91
2023-01-19T14:00:14.786Z,159286.75
2023-01-19T14:03:25.417Z,159302.41
2023-01-19T14:06:36.224Z,159310.22
2023-01-19T14:09:40.362Z,159299.81
2023-01-19T14:12:58.636Z,159305.03
2023-01-19T14:16:10.679Z,159316.75
2023-01-19T14:19:14.512Z,159276.41
2023-01-19T14:22:18.784Z,159279.00
2023-01-19T14:25:29.139Z,159306.31
2023-01-19T14:28:43.338Z,159289.41
2023-01-19T14:31:49.096Z,159290.66
2023-01-19T14:35:04.506Z,159277.69
2023-01-19T14:38:14.106Z,159243.81
2023-01-19T14:41:48.040Z,159262.03
2023-01-19T14:44:53.055Z,159282.91
2023-01-19T14:48:01.076Z,159281.59
2023-01-19T14:51:05.837Z,159268.59
2023-01-19T14:54:18.848Z,159271.19
2023-01-19T14:57:23.148Z,159258.13
2023-01-19T15:00:27.561Z,159239.91
2023-01-19T15:03:44.740Z,159254.22
2023-01-19T15:06:49.736Z,159247.72
2023-01-19T15:09:53.945Z,159238.59
2023-01-19T15:12:59.684Z,159243.81
2023-01-19T15:16:04.544Z,159220.31
2023-01-19T15:19:13.359Z,159215.16
2023-01-19T15:22:17.841Z,159215.16
2023-01-19T15:25:27.062Z,159195.59
2023-01-19T15:28:31.723Z,159242.50
2023-01-19T15:31:36.193Z,159207.28
2023-01-19T15:34:40.673Z,159182.56
2023-01-19T15:37:46.135Z,159211.19
2023-01-19T15:40:51.694Z,159215.16
2023-01-19T15:43:56.247Z,159202.09
2023-01-19T15:47:00.091Z,159195.59
2023-01-19T15:50:04.518Z,159174.75
2023-01-19T15:53:15.006Z,159153.91
2023-01-19T15:56:26.352Z,159138.28
2023-01-19T15:59:30.352Z,159146.09
2023-01-19T16:02:35.489Z,159159.13
2023-01-19T16:05:43.744Z,159138.28
2023-01-19T16:08:47.748Z,159143.50
2023-01-19T16:11:56.828Z,159144.81
2023-01-19T16:15:01.034Z,159133.06
2023-01-19T16:18:05.808Z,159138.28
2023-01-19T16:21:10.131Z,159143.50
2023-01-19T16:24:14.058Z,159157.81
2023-01-19T16:27:18.076Z,159170.84
2023-01-19T16:30:22.308Z,159183.88
2023-01-19T16:33:26.622Z,159174.75
2023-01-19T16:36:32.620Z,159169.56
2023-01-19T16:39:36.587Z,159155.22
2023-01-19T16:42:40.757Z,159161.72
2023-01-19T16:46:00.026Z,159172.16
2023-01-19T16:49:07.010Z,159151.31
2023-01-19T16:52:11.793Z,159138.28
2023-01-19T16:55:15.827Z,159133.06
2023-01-19T16:58:19.736Z,159134.38
2023-01-19T17:01:25.994Z,159131.78
2023-01-19T17:04:30.348Z,159117.41
2023-01-19T17:07:34.810Z,159117.41
2023-01-19T17:10:40.176Z,159127.88
2023-01-19T17:13:44.486Z,159148.72
2023-01-19T17:16:48.816Z,159134.38
2023-01-19T17:19:52.439Z,159143.50
2023-01-19T17:22:56.853Z,159139.59
2023-01-19T17:26:01.024Z,159136.94
2023-01-19T17:29:07.229Z,159138.28
2023-01-19T17:32:11.356Z,159127.88
2023-01-19T17:35:15.609Z,159159.13
2023-01-19T17:38:19.861Z,159147.41
2023-01-19T17:41:29.467Z,159144.81
2023-01-19T17:44:33.318Z,159140.88
2023-01-19T17:47:38.297Z,159146.09
2023-01-19T17:50:42.013Z,159143.50
2023-01-19T17:53:46.079Z,159160.44
2023-01-19T17:56:50.909Z,159163.03
2023-01-19T17:59:55.321Z,159159.13
2023-01-19T18:02:59.571Z,159160.44
2023-01-19T18:06:03.788Z,159156.53
2023-01-19T18:09:08.196Z,159190.44
2023-01-19T18:12:12.550Z,159183.88
2023-01-19T18:15:17.071Z,159172.16
2023-01-19T18:18:21.463Z,159173.50
2023-01-19T18:21:28.128Z,159173.50
2023-01-19T18:24:32.484Z,159173.50
2023-01-19T18:27:36.432Z,159169.56
2023-01-19T18:30:40.489Z,159181.31
2023-01-19T18:33:45.025Z,159174.75
2023-01-19T18:36:49.147Z,159172.16
2023-01-19T18:39:54.864Z,159165.63
2023-01-19T18:42:58.669Z,159173.50
2023-01-19T18:46:03.006Z,159166.94
2023-01-19T18:49:07.491Z,159161.72
2023-01-19T18:52:11.577Z,159139.59
2023-01-19T18:55:15.725Z,159136.94
2023-01-19T18:58:20.709Z,159139.59
2023-01-19T19:01:27.338Z,159139.59
2023-01-19T19:04:31.470Z,159133.06
2023-01-19T19:07:37.463Z,159135.69
2023-01-19T19:10:42.144Z,159127.88
2023-01-19T19:13:45.943Z,159117.41
2023-01-19T19:16:50.157Z,159116.09
2023-01-19T19:19:54.332Z,159109.63
2023-01-19T19:22:58.321Z,159122.66
2023-01-19T19:26:12.195Z,159100.47
2023-01-19T19:29:16.052Z,159120.06
2023-01-19T19:32:20.946Z,159109.63
2023-01-19T19:35:25.820Z,159110.94
2023-01-19T19:38:30.383Z,159118.75
2023-01-19T19:41:34.540Z,159090.06
2023-01-19T19:44:38.971Z,159104.38
2023-01-19T19:47:43.842Z,159107.03
2023-01-19T19:50:47.964Z,159122.66
2023-01-19T19:53:55.216Z,159109.63
2023-01-19T19:56:59.408Z,159099.22
2023-01-19T20:00:05.268Z,159110.94
2023-01-19T20:03:13.401Z,159118.75
2023-01-19T20:06:21.324Z,159117.41
2023-01-19T20:09:25.468Z,159114.84
2023-01-19T20:12:29.351Z,159125.25
2023-01-19T20:15:37.847Z,159126.56
2023-01-19T20:18:44.231Z,159125.25
2023-01-19T20:21:48.203Z,159133.06
2023-01-19T20:24:52.253Z,159135.69
2023-01-19T20:27:57.008Z,159134.38
2023-01-19T20:31:16.322Z,159138.28
2023-01-19T20:34:23.623Z,159134.38
2023-01-19T20:37:27.912Z,159146.09
2023-01-19T20:40:31.902Z,159151.31
2023-01-19T20:43:36.060Z,159176.06
2023-01-19T20:46:40.204Z,159159.13
2023-01-19T20:49:44.530Z,159148.72
2023-01-19T20:52:49.980Z,159148.72
2023-01-19T20:55:54.040Z,159159.13
2023-01-19T20:58:59.187Z,159150.00
2023-01-19T21:02:03.344Z,159122.66
2023-01-19T21:05:07.794Z,159122.66
2023-01-19T21:08:13.352Z,159120.06
2023-01-19T21:11:20.776Z,159135.69
2023-01-19T21:14:24.531Z,159143.50
2023-01-19T21:17:28.548Z,159138.28
2023-01-19T21:20:33.056Z,159140.88
2023-01-19T21:23:36.893Z,159146.09
2023-01-19T21:26:41.757Z,159138.28
2023-01-19T21:29:48.261Z,159136.94
2023-01-19T21:32:52.574Z,159143.50
2023-01-19T21:35:57.662Z,159151.31
2023-01-19T21:39:01.719Z,159172.16
2023-01-19T21:42:06.013Z,159160.44
2023-01-19T21:45:10.839Z,159140.88
2023-01-19T21:48:16.883Z,159142.19
2023-01-19T21:51:20.909Z,159136.94
2023-01-19T21:54:24.698Z,159130.47
2023-01-19T21:57:28.893Z,159144.81
2023-01-19T22:00:32.906Z,159148.72
2023-01-19T22:03:37.185Z,159156.53
2023-01-19T22:06:41.192Z,159166.94
2023-01-19T22:09:44.831Z,159173.50
2023-01-19T22:12:48.744Z,159179.97
2023-01-19T22:16:00.070Z,159190.44
2023-01-19T22:19:03.911Z,159177.41
2023-01-19T22:22:08.079Z,159174.75
2023-01-19T22:25:12.417Z,159173.50
2023-01-19T22:28:16.717Z,159159.13
2023-01-19T22:31:20.907Z,159159.13
2023-01-19T22:34:25.510Z,159160.44
2023-01-19T22:37:29.636Z,159165.63
2023-01-19T22:40:33.862Z,159161.72
2023-01-19T22:43:38.196Z,159144.81
2023-01-19T22:46:42.818Z,159153.91
2023-01-19T22:49:46.804Z,159165.63
2023-01-19T22:52:55.259Z,159161.72
2023-01-19T22:55:59.398Z,159169.56
2023-01-19T22:59:04.793Z,159172.16
2023-01-19T23:02:09.279Z,159169.56
2023-01-19T23:05:13.648Z,159165.63
2023-01-19T23:08:18.371Z,159166.94
2023-01-19T23:11:25.681Z,159164.34
2023-01-19T23:14:30.064Z,159163.03
2023-01-19T23:17:33.993Z,159148.72
2023-01-19T23:20:38.114Z,159166.94
2023-01-19T23:23:42.978Z,159172.16
2023-01-19T23:26:49.208Z,159168.25
2023-01-19T23:29:53.057Z,159172.16
2023-01-19T23:32:57.212Z,159189.13
2023-01-19T23:36:01.152Z,159177.41
2023-01-19T23:39:11.328Z,159166.94
2023-01-19T23:42:15.212Z,159161.72
2023-01-19T23:45:19.201Z,159174.75
2023-01-19T23:48:22.921Z,159153.91
2023-01-19T23:51:29.287Z,159140.88
2023-01-19T23:54:33.427Z,159135.69
2023-01-19T23:57:37.537Z,159125.25
